Rechercher aéroport 
image banner adimage banner adimage banner ad
image banner ad

0CA6 - Emory Ranch

Situé à Ocotillo, United States

ICAO - 0CA6, IATA -

Données fournies par Airmate  

Information générale

Coordonnées: N32°44'58" W116°0'58"
Élévation : 480 feet MSL.
Variation magnétique : 13° East
Voir autres Aéroports à California

Données opérationnelles

Special qualification required
Heure actuelle UTC:
Heure actuelle locale:
Météo à : KNJK - El Centro Naf ( 34 km )
METAR: KNJK 251156Z AUTO 12008KT 10SM BKN120 31/25 A2983 RMK AO2 SLP117 T03060250 10328 20306 53001 $
TAF: TAF AMD KNJK 2420/2515 VRB06KT 9999 VCSH FEW080 SCT150 OVC100 QNH2972INS TEMPO 2420/2423 VRB15G30KT 8000 -TSRA BKN080CB BKN150CB FM251000 VRB06KT 9999 FEW030 BKN080 QNH2982INS LAST NO AMDS AFT 2422 NEXT 2607 T42/2423Z T29/2513Z AMD 2000 FS30167
Voir NOTAMs / SUP AIP / TFR affectant cet aéroport [VIEW]
Fréquences de communication: [VIEW]

Pistes:

Identifiant RWYQFULongueur (ft)Largeur (ft)SurfaceLDA (ft)
04240040ASPH
22240040ASPH

Coordonnées de l'aéroport

Adresse: Ocotillo United States

Vue satellite de 0CA6